sensor_id;sensor_type;location;lat;lon;timestamp;pressure;altitude;pressure_sealevel;temperature
20730;BMP280;10526;50.850;12.928;2023-05-10T00:03:26;97355.81;;;11.44
20730;BMP280;10526;50.850;12.928;2023-05-10T00:07:48;97353.16;;;11.44
20730;BMP280;10526;50.850;12.928;2023-05-10T00:12:10;97356.66;;;11.41
20730;BMP280;10526;50.850;12.928;2023-05-10T00:16:32;97347.97;;;11.37
20730;BMP280;10526;50.850;12.928;2023-05-10T00:20:55;97349.41;;;11.41
20730;BMP280;10526;50.850;12.928;2023-05-10T00:25:17;97344.13;;;11.38
20730;BMP280;10526;50.850;12.928;2023-05-10T00:29:39;97348.13;;;11.30
20730;BMP280;10526;50.850;12.928;2023-05-10T00:34:01;97340.97;;;11.27
20730;BMP280;10526;50.850;12.928;2023-05-10T00:38:24;97338.50;;;11.16
20730;BMP280;10526;50.850;12.928;2023-05-10T00:42:46;97334.09;;;11.09
20730;BMP280;10526;50.850;12.928;2023-05-10T00:47:08;97336.25;;;11.14
20730;BMP280;10526;50.850;12.928;2023-05-10T00:51:31;97321.63;;;11.22
20730;BMP280;10526;50.850;12.928;2023-05-10T00:55:53;97324.22;;;11.26
20730;BMP280;10526;50.850;12.928;2023-05-10T01:00:15;97316.84;;;11.14
20730;BMP280;10526;50.850;12.928;2023-05-10T01:04:40;97312.78;;;11.09
20730;BMP280;10526;50.850;12.928;2023-05-10T01:09:02;97309.91;;;11.00
20730;BMP280;10526;50.850;12.928;2023-05-10T01:13:39;97315.06;;;10.91
20730;BMP280;10526;50.850;12.928;2023-05-10T01:18:01;97318.53;;;10.88
20730;BMP280;10526;50.850;12.928;2023-05-10T01:23:06;97306.59;;;10.96
20730;BMP280;10526;50.850;12.928;2023-05-10T01:28:15;97309.53;;;11.02
20730;BMP280;10526;50.850;12.928;2023-05-10T01:37:46;97301.50;;;10.82
20730;BMP280;10526;50.850;12.928;2023-05-10T01:42:21;97299.75;;;10.75
20730;BMP280;10526;50.850;12.928;2023-05-10T01:47:01;97293.66;;;10.75
20730;BMP280;10526;50.850;12.928;2023-05-10T01:51:31;97285.31;;;10.56
20730;BMP280;10526;50.850;12.928;2023-05-10T01:55:57;97294.66;;;10.45
20730;BMP280;10526;50.850;12.928;2023-05-10T02:00:22;97294.09;;;10.33
20730;BMP280;10526;50.850;12.928;2023-05-10T02:04:47;97308.38;;;10.20
20730;BMP280;10526;50.850;12.928;2023-05-10T02:09:11;97311.72;;;10.24
20730;BMP280;10526;50.850;12.928;2023-05-10T02:13:36;97308.00;;;10.21
20730;BMP280;10526;50.850;12.928;2023-05-10T02:18:00;97312.53;;;10.21
20730;BMP280;10526;50.850;12.928;2023-05-10T02:22:24;97326.09;;;10.30
20730;BMP280;10526;50.850;12.928;2023-05-10T02:26:47;97321.06;;;10.32
20730;BMP280;10526;50.850;12.928;2023-05-10T02:31:11;97310.91;;;10.27
20730;BMP280;10526;50.850;12.928;2023-05-10T02:35:34;97312.91;;;10.23
20730;BMP280;10526;50.850;12.928;2023-05-10T02:39:57;97308.69;;;10.25
20730;BMP280;10526;50.850;12.928;2023-05-10T02:44:20;97312.53;;;10.21
20730;BMP280;10526;50.850;12.928;2023-05-10T02:48:44;97305.03;;;10.16
20730;BMP280;10526;50.850;12.928;2023-05-10T02:53:14;97290.13;;;10.22
20730;BMP280;10526;50.850;12.928;2023-05-10T02:57:46;97301.91;;;10.21
20730;BMP280;10526;50.850;12.928;2023-05-10T03:02:11;97311.16;;;10.13
20730;BMP280;10526;50.850;12.928;2023-05-10T03:06:34;97309.78;;;10.04
20730;BMP280;10526;50.850;12.928;2023-05-10T03:16:15;97326.53;;;10.01
20730;BMP280;10526;50.850;12.928;2023-05-10T03:20:59;97325.84;;;9.97
20730;BMP280;10526;50.850;12.928;2023-05-10T03:25:24;97336.44;;;10.01
20730;BMP280;10526;50.850;12.928;2023-05-10T03:29:47;97343.78;;;10.17
20730;BMP280;10526;50.850;12.928;2023-05-10T03:34:10;97345.25;;;10.21
20730;BMP280;10526;50.850;12.928;2023-05-10T03:38:33;97334.22;;;10.43
20730;BMP280;10526;50.850;12.928;2023-05-10T03:42:55;97330.25;;;10.51
20730;BMP280;10526;50.850;12.928;2023-05-10T03:47:17;97334.25;;;11.02
20730;BMP280;10526;50.850;12.928;2023-05-10T03:51:39;97328.66;;;11.98
20730;BMP280;10526;50.850;12.928;2023-05-10T03:56:02;97323.16;;;12.63
20730;BMP280;10526;50.850;12.928;2023-05-10T04:00:24;97320.25;;;13.12
20730;BMP280;10526;50.850;12.928;2023-05-10T04:04:49;97312.94;;;13.51
20730;BMP280;10526;50.850;12.928;2023-05-10T04:09:12;97328.03;;;14.04
20730;BMP280;10526;50.850;12.928;2023-05-10T04:13:35;97311.88;;;14.83
20730;BMP280;10526;50.850;12.928;2023-05-10T04:17:57;97314.34;;;15.39
20730;BMP280;10526;50.850;12.928;2023-05-10T04:22:20;97320.50;;;15.95
20730;BMP280;10526;50.850;12.928;2023-05-10T04:26:42;97308.88;;;16.77
20730;BMP280;10526;50.850;12.928;2023-05-10T04:31:07;97326.28;;;17.23
20730;BMP280;10526;50.850;12.928;2023-05-10T04:35:29;97328.47;;;17.58
20730;BMP280;10526;50.850;12.928;2023-05-10T04:39:52;97313.53;;;18.55
20730;BMP280;10526;50.850;12.928;2023-05-10T04:44:14;97337.31;;;19.06
20730;BMP280;10526;50.850;12.928;2023-05-10T04:48:36;97322.91;;;19.50
20730;BMP280;10526;50.850;12.928;2023-05-10T04:52:58;97329.81;;;20.28
20730;BMP280;10526;50.850;12.928;2023-05-10T04:57:20;97332.16;;;19.89
20730;BMP280;10526;50.850;12.928;2023-05-10T05:01:43;97329.16;;;20.07
20730;BMP280;10526;50.850;12.928;2023-05-10T05:06:05;97325.47;;;21.11
20730;BMP280;10526;50.850;12.928;2023-05-10T05:10:28;97345.41;;;22.62
20730;BMP280;10526;50.850;12.928;2023-05-10T05:14:50;97342.47;;;22.43
20730;BMP280;10526;50.850;12.928;2023-05-10T05:19:12;97357.34;;;23.28
20730;BMP280;10526;50.850;12.928;2023-05-10T05:23:34;97338.81;;;23.73
20730;BMP280;10526;50.850;12.928;2023-05-10T05:27:57;97346.66;;;24.91
20730;BMP280;10526;50.850;12.928;2023-05-10T05:32:18;97348.75;;;25.92
20730;BMP280;10526;50.850;12.928;2023-05-10T05:36:41;97340.53;;;24.36
20730;BMP280;10526;50.850;12.928;2023-05-10T05:41:03;97347.91;;;24.90
20730;BMP280;10526;50.850;12.928;2023-05-10T05:45:25;97349.19;;;25.64
20730;BMP280;10526;50.850;12.928;2023-05-10T05:49:47;97345.13;;;24.71
20730;BMP280;10526;50.850;12.928;2023-05-10T05:54:09;97338.34;;;23.11
20730;BMP280;10526;50.850;12.928;2023-05-10T05:58:31;97345.94;;;22.38
20730;BMP280;10526;50.850;12.928;2023-05-10T06:02:53;97340.28;;;20.41
20730;BMP280;10526;50.850;12.928;2023-05-10T06:07:16;97334.38;;;19.44
20730;BMP280;10526;50.850;12.928;2023-05-10T06:11:38;97340.63;;;18.80
20730;BMP280;10526;50.850;12.928;2023-05-10T06:16:01;97349.03;;;17.70
20730;BMP280;10526;50.850;12.928;2023-05-10T06:20:24;97349.13;;;17.52
20730;BMP280;10526;50.850;12.928;2023-05-10T06:24:46;97347.03;;;17.80
20730;BMP280;10526;50.850;12.928;2023-05-10T06:29:08;97355.53;;;17.78
20730;BMP280;10526;50.850;12.928;2023-05-10T06:33:30;97360.75;;;17.82
20730;BMP280;10526;50.850;12.928;2023-05-10T06:37:53;97348.34;;;17.84
20730;BMP280;10526;50.850;12.928;2023-05-10T06:42:15;97347.50;;;17.54
20730;BMP280;10526;50.850;12.928;2023-05-10T06:46:40;97351.97;;;17.96
20730;BMP280;10526;50.850;12.928;2023-05-10T06:51:03;97359.53;;;17.83
20730;BMP280;10526;50.850;12.928;2023-05-10T06:55:26;97361.03;;;18.23
20730;BMP280;10526;50.850;12.928;2023-05-10T06:59:48;97362.25;;;18.51
20730;BMP280;10526;50.850;12.928;2023-05-10T07:04:10;97362.38;;;19.06
20730;BMP280;10526;50.850;12.928;2023-05-10T07:08:36;97365.22;;;19.79
20730;BMP280;10526;50.850;12.928;2023-05-10T07:12:58;97367.84;;;19.32
20730;BMP280;10526;50.850;12.928;2023-05-10T07:17:21;97366.91;;;18.50
20730;BMP280;10526;50.850;12.928;2023-05-10T07:21:43;97365.13;;;18.33
20730;BMP280;10526;50.850;12.928;2023-05-10T07:26:06;97368.41;;;19.01
20730;BMP280;10526;50.850;12.928;2023-05-10T07:30:28;97370.72;;;19.08
20730;BMP280;10526;50.850;12.928;2023-05-10T07:34:50;97374.44;;;20.13
20730;BMP280;10526;50.850;12.928;2023-05-10T07:39:13;97377.97;;;21.95
20730;BMP280;10526;50.850;12.928;2023-05-10T07:43:45;97381.06;;;25.13
20730;BMP280;10526;50.850;12.928;2023-05-10T07:48:07;97392.69;;;23.75
20730;BMP280;10526;50.850;12.928;2023-05-10T07:52:29;97391.66;;;21.58
20730;BMP280;10526;50.850;12.928;2023-05-10T07:56:51;97395.41;;;20.49
20730;BMP280;10526;50.850;12.928;2023-05-10T08:01:13;97392.19;;;20.77
20730;BMP280;10526;50.850;12.928;2023-05-10T08:05:36;97397.28;;;20.63
20730;BMP280;10526;50.850;12.928;2023-05-10T08:09:58;97413.03;;;20.39
20730;BMP280;10526;50.850;12.928;2023-05-10T08:14:20;97421.44;;;19.19
20730;BMP280;10526;50.850;12.928;2023-05-10T08:18:43;97413.09;;;18.58
20730;BMP280;10526;50.850;12.928;2023-05-10T08:23:05;97413.94;;;18.35
20730;BMP280;10526;50.850;12.928;2023-05-10T08:27:28;97421.84;;;18.53
20730;BMP280;10526;50.850;12.928;2023-05-10T08:31:50;97426.84;;;18.31
20730;BMP280;10526;50.850;12.928;2023-05-10T08:36:13;97436.28;;;18.11
20730;BMP280;10526;50.850;12.928;2023-05-10T08:40:37;97432.34;;;17.98
20730;BMP280;10526;50.850;12.928;2023-05-10T08:45:00;97442.34;;;18.21
20730;BMP280;10526;50.850;12.928;2023-05-10T08:49:24;97439.31;;;18.43
20730;BMP280;10526;50.850;12.928;2023-05-10T08:53:48;97445.56;;;18.10
20730;BMP280;10526;50.850;12.928;2023-05-10T08:58:10;97448.44;;;18.07
20730;BMP280;10526;50.850;12.928;2023-05-10T09:02:32;97452.50;;;17.78
20730;BMP280;10526;50.850;12.928;2023-05-10T09:06:56;97459.03;;;17.86
20730;BMP280;10526;50.850;12.928;2023-05-10T09:11:20;97465.69;;;18.00
20730;BMP280;10526;50.850;12.928;2023-05-10T09:15:44;97467.25;;;17.92
20730;BMP280;10526;50.850;12.928;2023-05-10T09:20:07;97476.72;;;17.87
20730;BMP280;10526;50.850;12.928;2023-05-10T09:24:30;97487.22;;;17.43
20730;BMP280;10526;50.850;12.928;2023-05-10T09:28:58;97497.78;;;17.14
20730;BMP280;10526;50.850;12.928;2023-05-10T09:33:20;97489.16;;;16.46
20730;BMP280;10526;50.850;12.928;2023-05-10T09:37:46;97499.25;;;15.65
20730;BMP280;10526;50.850;12.928;2023-05-10T09:42:10;97499.44;;;15.08
20730;BMP280;10526;50.850;12.928;2023-05-10T09:46:35;97511.00;;;14.83
20730;BMP280;10526;50.850;12.928;2023-05-10T09:50:58;97513.09;;;14.67
20730;BMP280;10526;50.850;12.928;2023-05-10T09:55:23;97511.16;;;14.67
20730;BMP280;10526;50.850;12.928;2023-05-10T09:59:45;97514.66;;;14.77
20730;BMP280;10526;50.850;12.928;2023-05-10T10:04:10;97519.53;;;14.91
20730;BMP280;10526;50.850;12.928;2023-05-10T10:08:32;97519.97;;;15.11
20730;BMP280;10526;50.850;12.928;2023-05-10T10:12:55;97523.66;;;15.27
20730;BMP280;10526;50.850;12.928;2023-05-10T10:17:19;97526.38;;;15.05
20730;BMP280;10526;50.850;12.928;2023-05-10T10:21:41;97525.13;;;14.84
20730;BMP280;10526;50.850;12.928;2023-05-10T10:26:04;97523.78;;;14.79
20730;BMP280;10526;50.850;12.928;2023-05-10T10:30:46;97528.50;;;14.75
20730;BMP280;10526;50.850;12.928;2023-05-10T10:35:10;97523.66;;;14.83
20730;BMP280;10526;50.850;12.928;2023-05-10T10:39:32;97529.41;;;14.94
20730;BMP280;10526;50.850;12.928;2023-05-10T10:44:23;97526.41;;;14.92
20730;BMP280;10526;50.850;12.928;2023-05-10T10:49:09;97531.22;;;14.97
20730;BMP280;10526;50.850;12.928;2023-05-10T10:53:32;97533.91;;;14.97
20730;BMP280;10526;50.850;12.928;2023-05-10T10:57:56;97528.84;;;14.99
20730;BMP280;10526;50.850;12.928;2023-05-10T11:02:42;97534.53;;;15.01
20730;BMP280;10526;50.850;12.928;2023-05-10T11:07:18;97539.56;;;14.99
20730;BMP280;10526;50.850;12.928;2023-05-10T11:11:54;97537.38;;;14.85
20730;BMP280;10526;50.850;12.928;2023-05-10T11:16:24;97542.75;;;14.85
20730;BMP280;10526;50.850;12.928;2023-05-10T11:20:52;97543.41;;;14.76
20730;BMP280;10526;50.850;12.928;2023-05-10T11:25:17;97544.06;;;14.68
20730;BMP280;10526;50.850;12.928;2023-05-10T11:29:39;97547.94;;;14.67
20730;BMP280;10526;50.850;12.928;2023-05-10T11:34:01;97552.13;;;14.68
20730;BMP280;10526;50.850;12.928;2023-05-10T11:38:23;97555.97;;;14.67
20730;BMP280;10526;50.850;12.928;2023-05-10T11:42:46;97558.97;;;14.69
20730;BMP280;10526;50.850;12.928;2023-05-10T11:47:08;97566.28;;;14.55
20730;BMP280;10526;50.850;12.928;2023-05-10T11:51:34;97562.25;;;14.13
20730;BMP280;10526;50.850;12.928;2023-05-10T11:56:09;97573.13;;;13.80
20730;BMP280;10526;50.850;12.928;2023-05-10T12:00:31;97570.41;;;13.55
20730;BMP280;10526;50.850;12.928;2023-05-10T12:04:55;97574.19;;;13.28
20730;BMP280;10526;50.850;12.928;2023-05-10T12:09:18;97585.44;;;12.90
20730;BMP280;10526;50.850;12.928;2023-05-10T12:13:56;97578.81;;;12.95
20730;BMP280;10526;50.850;12.928;2023-05-10T12:18:23;97587.84;;;13.01
20730;BMP280;10526;50.850;12.928;2023-05-10T12:22:52;97586.72;;;13.15
20730;BMP280;10526;50.850;12.928;2023-05-10T12:27:15;97582.22;;;13.12
20730;BMP280;10526;50.850;12.928;2023-05-10T12:31:56;97589.84;;;13.13
20730;BMP280;10526;50.850;12.928;2023-05-10T12:36:23;97593.00;;;13.25
20730;BMP280;10526;50.850;12.928;2023-05-10T12:40:46;97594.53;;;13.38
20730;BMP280;10526;50.850;12.928;2023-05-10T12:45:09;97590.28;;;13.54
20730;BMP280;10526;50.850;12.928;2023-05-10T12:49:31;97593.34;;;13.68
20730;BMP280;10526;50.850;12.928;2023-05-10T12:53:54;97598.63;;;13.72
20730;BMP280;10526;50.850;12.928;2023-05-10T12:58:16;97590.47;;;13.75
20730;BMP280;10526;50.850;12.928;2023-05-10T13:02:55;97599.88;;;14.09
20730;BMP280;10526;50.850;12.928;2023-05-10T13:07:17;97596.84;;;14.45
20730;BMP280;10526;50.850;12.928;2023-05-10T13:11:40;97595.97;;;14.74
20730;BMP280;10526;50.850;12.928;2023-05-10T13:16:02;97594.28;;;15.02
20730;BMP280;10526;50.850;12.928;2023-05-10T13:20:25;97592.69;;;15.48
20730;BMP280;10526;50.850;12.928;2023-05-10T13:24:47;97585.66;;;15.72
20730;BMP280;10526;50.850;12.928;2023-05-10T13:29:09;97584.63;;;15.79
20730;BMP280;10526;50.850;12.928;2023-05-10T13:33:32;97587.31;;;16.10
20730;BMP280;10526;50.850;12.928;2023-05-10T13:37:54;97584.53;;;16.23
20730;BMP280;10526;50.850;12.928;2023-05-10T13:42:18;97582.00;;;16.28
20730;BMP280;10526;50.850;12.928;2023-05-10T13:46:41;97589.75;;;16.26
20730;BMP280;10526;50.850;12.928;2023-05-10T13:51:04;97576.03;;;16.24
20730;BMP280;10526;50.850;12.928;2023-05-10T13:55:26;97579.16;;;16.23
20730;BMP280;10526;50.850;12.928;2023-05-10T13:59:48;97578.47;;;16.50
20730;BMP280;10526;50.850;12.928;2023-05-10T14:04:10;97572.22;;;16.71
20730;BMP280;10526;50.850;12.928;2023-05-10T14:08:34;97575.09;;;16.95
20730;BMP280;10526;50.850;12.928;2023-05-10T14:12:56;97577.31;;;17.06
20730;BMP280;10526;50.850;12.928;2023-05-10T14:17:19;97570.88;;;17.12
20730;BMP280;10526;50.850;12.928;2023-05-10T14:21:41;97568.34;;;17.09
20730;BMP280;10526;50.850;12.928;2023-05-10T14:26:03;97568.81;;;17.07
20730;BMP280;10526;50.850;12.928;2023-05-10T14:30:25;97572.53;;;17.19
20730;BMP280;10526;50.850;12.928;2023-05-10T14:34:48;97574.28;;;17.22
20730;BMP280;10526;50.850;12.928;2023-05-10T14:39:10;97570.88;;;17.30
20730;BMP280;10526;50.850;12.928;2023-05-10T14:43:34;97566.81;;;17.35
20730;BMP280;10526;50.850;12.928;2023-05-10T14:47:57;97563.19;;;17.47
20730;BMP280;10526;50.850;12.928;2023-05-10T14:52:20;97563.22;;;17.38
20730;BMP280;10526;50.850;12.928;2023-05-10T14:56:42;97563.25;;;17.11
20730;BMP280;10526;50.850;12.928;2023-05-10T15:01:04;97570.13;;;17.02
20730;BMP280;10526;50.850;12.928;2023-05-10T15:05:27;97565.53;;;16.94
20730;BMP280;10526;50.850;12.928;2023-05-10T15:09:51;97566.84;;;17.08
20730;BMP280;10526;50.850;12.928;2023-05-10T15:14:15;97572.53;;;17.19
20730;BMP280;10526;50.850;12.928;2023-05-10T15:18:37;97571.88;;;17.33
20730;BMP280;10526;50.850;12.928;2023-05-10T15:23:00;97563.69;;;17.27
20730;BMP280;10526;50.850;12.928;2023-05-10T15:27:22;97569.38;;;17.29
20730;BMP280;10526;50.850;12.928;2023-05-10T15:31:44;97572.78;;;17.39
20730;BMP280;10526;50.850;12.928;2023-05-10T15:36:06;97586.63;;;17.56
20730;BMP280;10526;50.850;12.928;2023-05-10T15:40:28;97579.03;;;17.54
20730;BMP280;10526;50.850;12.928;2023-05-10T15:44:51;97572.31;;;17.50
20730;BMP280;10526;50.850;12.928;2023-05-10T15:49:12;97576.09;;;17.34
20730;BMP280;10526;50.850;12.928;2023-05-10T15:53:34;97586.50;;;17.41
20730;BMP280;10526;50.850;12.928;2023-05-10T15:57:57;97579.34;;;17.47
20730;BMP280;10526;50.850;12.928;2023-05-10T16:02:19;97575.78;;;17.50
20730;BMP280;10526;50.850;12.928;2023-05-10T16:06:42;97581.44;;;17.43
20730;BMP280;10526;50.850;12.928;2023-05-10T16:11:04;97580.13;;;17.39
20730;BMP280;10526;50.850;12.928;2023-05-10T16:15:28;97573.09;;;17.32
20730;BMP280;10526;50.850;12.928;2023-05-10T16:19:50;97575.22;;;17.10
20730;BMP280;10526;50.850;12.928;2023-05-10T16:24:12;97576.72;;;16.92
20730;BMP280;10526;50.850;12.928;2023-05-10T16:28:34;97572.97;;;16.71
20730;BMP280;10526;50.850;12.928;2023-05-10T16:32:57;97589.06;;;16.44
20730;BMP280;10526;50.850;12.928;2023-05-10T16:37:19;97579.44;;;16.16
20730;BMP280;10526;50.850;12.928;2023-05-10T16:41:41;97586.69;;;16.06
20730;BMP280;10526;50.850;12.928;2023-05-10T16:46:09;97578.56;;;15.88
20730;BMP280;10526;50.850;12.928;2023-05-10T16:50:32;97582.41;;;15.77
20730;BMP280;10526;50.850;12.928;2023-05-10T16:54:55;97586.25;;;15.67
20730;BMP280;10526;50.850;12.928;2023-05-10T16:59:17;97589.63;;;15.59
20730;BMP280;10526;50.850;12.928;2023-05-10T17:03:39;97594.91;;;15.49
20730;BMP280;10526;50.850;12.928;2023-05-10T17:08:02;97603.25;;;15.42
20730;BMP280;10526;50.850;12.928;2023-05-10T17:12:24;97597.34;;;15.35
20730;BMP280;10526;50.850;12.928;2023-05-10T17:16:46;97596.66;;;15.21
20730;BMP280;10526;50.850;12.928;2023-05-10T17:21:09;97599.28;;;15.12
20730;BMP280;10526;50.850;12.928;2023-05-10T17:25:31;97594.88;;;15.06
20730;BMP280;10526;50.850;12.928;2023-05-10T17:29:56;97597.91;;;14.95
20730;BMP280;10526;50.850;12.928;2023-05-10T17:34:19;97602.34;;;14.89
20730;BMP280;10526;50.850;12.928;2023-05-10T17:38:41;97600.19;;;14.84
20730;BMP280;10526;50.850;12.928;2023-05-10T17:43:04;97605.28;;;14.82
20730;BMP280;10526;50.850;12.928;2023-05-10T17:47:26;97603.00;;;14.80
20730;BMP280;10526;50.850;12.928;2023-05-10T17:51:48;97604.41;;;14.72
20730;BMP280;10526;50.850;12.928;2023-05-10T17:56:11;97609.25;;;14.64
20730;BMP280;10526;50.850;12.928;2023-05-10T18:00:33;97603.19;;;14.51
20730;BMP280;10526;50.850;12.928;2023-05-10T18:04:55;97607.56;;;14.45
20730;BMP280;10526;50.850;12.928;2023-05-10T18:09:20;97613.13;;;14.38
20730;BMP280;10526;50.850;12.928;2023-05-10T18:13:42;97611.44;;;14.31
20730;BMP280;10526;50.850;12.928;2023-05-10T18:18:05;97620.81;;;14.23
20730;BMP280;10526;50.850;12.928;2023-05-10T18:22:27;97615.28;;;14.18
20730;BMP280;10526;50.850;12.928;2023-05-10T18:26:49;97623.84;;;14.13
20730;BMP280;10526;50.850;12.928;2023-05-10T18:31:12;97623.22;;;14.09
20730;BMP280;10526;50.850;12.928;2023-05-10T18:35:34;97625.22;;;14.04
20730;BMP280;10526;50.850;12.928;2023-05-10T18:39:56;97631.75;;;14.03
20730;BMP280;10526;50.850;12.928;2023-05-10T18:44:18;97632.59;;;14.00
20730;BMP280;10526;50.850;12.928;2023-05-10T18:48:40;97635.28;;;14.00
20730;BMP280;10526;50.850;12.928;2023-05-10T18:53:02;97641.81;;;13.99
20730;BMP280;10526;50.850;12.928;2023-05-10T18:57:24;97653.38;;;13.96
20730;BMP280;10526;50.850;12.928;2023-05-10T19:01:47;97650.03;;;13.92
20730;BMP280;10526;50.850;12.928;2023-05-10T19:06:11;97656.44;;;13.82
20730;BMP280;10526;50.850;12.928;2023-05-10T19:10:33;97664.31;;;13.73
20730;BMP280;10526;50.850;12.928;2023-05-10T19:14:55;97661.00;;;13.69
20730;BMP280;10526;50.850;12.928;2023-05-10T19:19:17;97666.34;;;13.69
20730;BMP280;10526;50.850;12.928;2023-05-10T19:23:40;97672.88;;;13.68
20730;BMP280;10526;50.850;12.928;2023-05-10T19:28:03;97675.97;;;13.66
20730;BMP280;10526;50.850;12.928;2023-05-10T19:32:26;97672.22;;;13.64
20730;BMP280;10526;50.850;12.928;2023-05-10T19:36:49;97678.66;;;13.66
20730;BMP280;10526;50.850;12.928;2023-05-10T19:41:11;97676.09;;;13.63
20730;BMP280;10526;50.850;12.928;2023-05-10T19:45:33;97677.22;;;13.62
20730;BMP280;10526;50.850;12.928;2023-05-10T19:49:57;97678.09;;;13.59
20730;BMP280;10526;50.850;12.928;2023-05-10T19:54:19;97678.69;;;13.50
20730;BMP280;10526;50.850;12.928;2023-05-10T19:58:41;97681.97;;;13.41
20730;BMP280;10526;50.850;12.928;2023-05-10T20:03:04;97680.13;;;13.38
20730;BMP280;10526;50.850;12.928;2023-05-10T20:07:29;97671.78;;;13.36
20730;BMP280;10526;50.850;12.928;2023-05-10T20:12:01;97681.84;;;13.32
20730;BMP280;10526;50.850;12.928;2023-05-10T20:16:23;97679.63;;;13.27
20730;BMP280;10526;50.850;12.928;2023-05-10T20:21:08;97687.00;;;13.23
20730;BMP280;10526;50.850;12.928;2023-05-10T20:25:30;97695.09;;;13.19
20730;BMP280;10526;50.850;12.928;2023-05-10T20:29:52;97693.09;;;13.24
20730;BMP280;10526;50.850;12.928;2023-05-10T20:34:15;97701.47;;;13.26
20730;BMP280;10526;50.850;12.928;2023-05-10T20:38:38;97700.63;;;13.29
20730;BMP280;10526;50.850;12.928;2023-05-10T20:43:00;97704.03;;;13.29
20730;BMP280;10526;50.850;12.928;2023-05-10T20:47:22;97701.00;;;13.27
20730;BMP280;10526;50.850;12.928;2023-05-10T20:51:44;97698.09;;;13.22
20730;BMP280;10526;50.850;12.928;2023-05-10T20:56:07;97700.88;;;13.18
20730;BMP280;10526;50.850;12.928;2023-05-10T21:00:29;97697.34;;;13.21
20730;BMP280;10526;50.850;12.928;2023-05-10T21:04:51;97695.00;;;13.23
20730;BMP280;10526;50.850;12.928;2023-05-10T21:09:15;97694.94;;;13.27
20730;BMP280;10526;50.850;12.928;2023-05-10T21:13:38;97691.84;;;13.28
20730;BMP280;10526;50.850;12.928;2023-05-10T21:18:00;97694.53;;;13.28
20730;BMP280;10526;50.850;12.928;2023-05-10T21:22:23;97688.53;;;13.24
20730;BMP280;10526;50.850;12.928;2023-05-10T21:26:45;97688.16;;;13.22
20730;BMP280;10526;50.850;12.928;2023-05-10T21:31:08;97687.50;;;13.18
20730;BMP280;10526;50.850;12.928;2023-05-10T21:35:30;97696.72;;;13.17
20730;BMP280;10526;50.850;12.928;2023-05-10T21:39:52;97692.84;;;13.18
20730;BMP280;10526;50.850;12.928;2023-05-10T21:44:14;97697.56;;;13.14
20730;BMP280;10526;50.850;12.928;2023-05-10T21:48:37;97700.38;;;13.07
20730;BMP280;10526;50.850;12.928;2023-05-10T21:52:59;97703.88;;;13.04
20730;BMP280;10526;50.850;12.928;2023-05-10T21:57:22;97706.44;;;13.07
20730;BMP280;10526;50.850;12.928;2023-05-10T22:01:44;97702.97;;;13.10
20730;BMP280;10526;50.850;12.928;2023-05-10T22:06:06;97697.84;;;13.16
20730;BMP280;10526;50.850;12.928;2023-05-10T22:10:30;97705.81;;;13.19
20730;BMP280;10526;50.850;12.928;2023-05-10T22:14:51;97698.84;;;13.22
20730;BMP280;10526;50.850;12.928;2023-05-10T22:19:30;97712.59;;;13.24
20730;BMP280;10526;50.850;12.928;2023-05-10T22:23:52;97704.88;;;13.26
20730;BMP280;10526;50.850;12.928;2023-05-10T22:28:20;97709.50;;;13.26
20730;BMP280;10526;50.850;12.928;2023-05-10T22:32:46;97707.56;;;13.26
20730;BMP280;10526;50.850;12.928;2023-05-10T22:37:08;97700.34;;;13.23
20730;BMP280;10526;50.850;12.928;2023-05-10T22:41:32;97702.00;;;13.21
20730;BMP280;10526;50.850;12.928;2023-05-10T22:45:55;97705.22;;;13.12
20730;BMP280;10526;50.850;12.928;2023-05-10T22:50:17;97701.84;;;13.08
20730;BMP280;10526;50.850;12.928;2023-05-10T22:54:40;97703.13;;;13.03
20730;BMP280;10526;50.850;12.928;2023-05-10T22:59:02;97705.13;;;12.99
20730;BMP280;10526;50.850;12.928;2023-05-10T23:03:24;97707.88;;;12.96
20730;BMP280;10526;50.850;12.928;2023-05-10T23:07:47;97708.72;;;12.93
20730;BMP280;10526;50.850;12.928;2023-05-10T23:12:13;97708.03;;;12.88
20730;BMP280;10526;50.850;12.928;2023-05-10T23:16:35;97709.19;;;12.87
20730;BMP280;10526;50.850;12.928;2023-05-10T23:20:57;97707.63;;;12.90
20730;BMP280;10526;50.850;12.928;2023-05-10T23:25:20;97703.03;;;12.90
20730;BMP280;10526;50.850;12.928;2023-05-10T23:29:42;97703.94;;;12.84
20730;BMP280;10526;50.850;12.928;2023-05-10T23:34:04;97704.38;;;12.82
20730;BMP280;10526;50.850;12.928;2023-05-10T23:38:27;97709.72;;;12.82
20730;BMP280;10526;50.850;12.928;2023-05-10T23:42:49;97701.38;;;12.80
20730;BMP280;10526;50.850;12.928;2023-05-10T23:47:11;97692.31;;;12.74
20730;BMP280;10526;50.850;12.928;2023-05-10T23:51:33;97688.56;;;12.72
20730;BMP280;10526;50.850;12.928;2023-05-10T23:55:55;97680.56;;;12.72
